Impacts METAR Board
IDs:

KBMQ - Burnet Muni, TX, US

Updated at: 0000 UTC 01 Nov 2020
Potential Impact None Slight Moderate High
Time 31/12Z 31/13Z 31/14Z 31/15Z 31/16Z 31/17Z 31/18Z 31/19Z 31/20Z 31/21Z 31/22Z 31/23Z 01/00Z
Temp40 40 48 55 61 65 69 72 74 75 76 70
Dewpt34 34 38 39 39 40 40 40 39 38 40 41
Altim30.22 30.22 30.23 30.25 30.24 30.24 30.21 30.17 30.13 30.10 30.11 30.12
VIS10 10 10 10 10 10 10 10 10 10 10 10
CIG-- -- -- -- -- -- -- -- -- -- -- --
CoverCLRCLRCLRCLRCLRCLRCLRCLRCLRCLRCLRCLR
FltCatVFRVFRVFRVFRVFRVFRVFRVFRVFRVFRVFRVFR
WX------------------------
WDir0001801901801600170190210150
WSpd0 0 0 7 6 7 6 6 5 9 7 3
WGst-- -- -- -- -- -- -- -- -- 18 -- --
Raw hourly METARs
KBMQ 311153Z AUTO 00000KT 10SM CLR 04/01 A3022 RMK AO2 SLP230 T00440011 10094 20044 53003
KBMQ 311253Z AUTO 00000KT 10SM CLR 04/01 A3022 RMK AO2 SLP231 T00440011
KBMQ 311353Z AUTO 00000KT 10SM CLR 09/03 A3023 RMK AO2 SLP233 T00890033
KBMQ 311453Z AUTO 18007KT 10SM CLR 13/04 A3025 RMK AO2 SLP238 T01280039 53008
KBMQ 311553Z AUTO 19006KT 10SM CLR 16/04 A3024 RMK AO2 SLP234 T01610039
KBMQ 311653Z AUTO 18007KT 10SM CLR 18/04 A3024 RMK AO2 SLP231 T01830044 $
KBMQ 311753Z AUTO 16006KT 10SM CLR 21/04 A3021 RMK AO2 SLP221 T02060044 10206 20044 58013 $
KBMQ 311853Z AUTO VRB06KT 10SM CLR 22/04 A3017 RMK AO2 SLP209 T02220044 $
KBMQ 311953Z AUTO 17005KT 10SM CLR 23/04 A3013 RMK AO2 SLP196 T02330039 $
KBMQ 312053Z AUTO 19009G18KT 10SM CLR 24/03 A3010 RMK AO2 SLP186 T02390033 56034 $
KBMQ 312153Z AUTO 21007KT 10SM CLR 24/04 A3011 RMK AO2 SLP186 T02440044 $

KBMQ 312353Z AUTO 15003KT 10SM CLR 21/05 A3012 RMK AO2 SLP193 T02110050 10244 20206 53005 $